TimeEDT,TemperatureF,Dew PointF,Humidity,Sea Level PressureIn,VisibilityMPH,Wind Direction,Wind SpeedMPH,Gust SpeedMPH,PrecipitationIn,Events,Conditions,WindDirDegrees,DateUTC
12:09 AM,48.2,44.6,87,29.81,10.0,SSE,3.5,-,N/A,,Overcast,160,2013-03-12 04:09:00
12:51 AM,48.9,46.0,90,29.79,10.0,SSW,3.5,-,0.00,Rain,Light Rain,200,2013-03-12 04:51:00
12:59 AM,48.2,46.4,93,29.80,10.0,West,5.8,-,0.00,Rain,Light Rain,270,2013-03-12 04:59:00
1:51 AM,48.2,44.6,87,29.80,9.0,SW,4.6,-,N/A,Rain,Light Rain,220,2013-03-12 05:51:00
2:24 AM,48.2,46.4,93,29.81,7.0,Calm,Calm,-,0.02,Rain,Light Rain,0,2013-03-12 06:24:00
2:32 AM,48.2,46.4,93,29.81,4.0,Calm,Calm,-,0.03,Rain,Rain,0,2013-03-12 06:32:00
2:51 AM,46.0,44.1,93,29.80,6.0,NNW,15.0,-,0.05,Rain,Light Rain,340,2013-03-12 06:51:00
3:29 AM,42.8,41.0,93,29.82,10.0,NNW,13.8,17.3,0.01,Rain,Light Rain,340,2013-03-12 07:29:00
3:51 AM,41.0,39.0,93,29.81,7.0,NNW,10.4,-,0.03,Rain,Light Rain,340,2013-03-12 07:51:00
4:22 AM,39.2,39.2,100,29.82,6.0,NNW,9.2,-,0.00,Rain,Light Rain,330,2013-03-12 08:22:00
4:37 AM,39.2,37.4,93,29.83,3.0,NNW,13.8,-,0.03,Rain,Rain,330,2013-03-12 08:37:00
4:51 AM,37.9,36.0,93,29.83,5.0,North,11.5,-,0.06,Rain,Light Rain,350,2013-03-12 08:51:00
5:10 AM,37.4,35.6,93,29.83,10.0,NNW,10.4,-,0.00,,Overcast,340,2013-03-12 09:10:00
5:36 AM,35.6,33.8,93,29.84,10.0,NNW,9.2,-,0.00,,Overcast,340,2013-03-12 09:36:00
5:51 AM,36.0,34.0,93,29.86,10.0,NNW,9.2,-,0.00,Rain,Light Rain,340,2013-03-12 09:51:00
6:07 AM,35.6,33.8,93,29.86,10.0,NNW,10.4,-,0.00,Rain,Light Rain,330,2013-03-12 10:07:00
6:51 AM,35.1,32.0,89,29.89,10.0,NNW,6.9,-,0.00,,Overcast,330,2013-03-12 10:51:00
7:09 AM,35.6,32.0,87,29.86,10.0,NNW,6.9,-,N/A,,Overcast,340,2013-03-12 11:09:00
7:23 AM,35.6,33.8,93,29.87,10.0,NW,5.8,-,N/A,,Overcast,310,2013-03-12 11:23:00
7:51 AM,34.0,32.0,92,29.90,10.0,WNW,6.9,-,N/A,,Overcast,300,2013-03-12 11:51:00
7:54 AM,33.8,32.0,93,29.88,10.0,NW,6.9,-,N/A,,Overcast,310,2013-03-12 11:54:00
8:02 AM,33.8,32.0,93,29.88,10.0,NW,6.9,-,N/A,,Overcast,310,2013-03-12 12:02:00
8:12 AM,33.8,32.0,93,29.88,7.0,WNW,8.1,-,N/A,,Overcast,300,2013-03-12 12:12:00
8:51 AM,34.0,32.0,92,29.93,6.0,NW,6.9,-,0.00,,Overcast,320,2013-03-12 12:51:00
9:04 AM,33.8,32.0,93,29.91,1.8,NW,9.2,-,N/A,,Overcast,320,2013-03-12 13:04:00
9:23 AM,33.8,32.0,93,29.92,1.5,WNW,6.9,-,0.00,Snow,Light Snow,300,2013-03-12 13:23:00
9:36 AM,33.8,33.8,100,29.91,3.0,NW,4.6,-,0.01,Snow,Light Snow,310,2013-03-12 13:36:00
9:47 AM,33.8,32.0,93,29.91,10.0,WNW,8.1,-,0.01,,Overcast,290,2013-03-12 13:47:00
9:51 AM,34.0,32.0,92,29.94,10.0,WNW,8.1,-,0.01,,Overcast,300,2013-03-12 13:51:00
9:58 AM,33.8,32.0,93,29.91,10.0,WNW,6.9,-,N/A,,Overcast,290,2013-03-12 13:58:00
10:51 AM,35.1,32.0,89,29.95,6.0,WNW,6.9,-,N/A,,Overcast,290,2013-03-12 14:51:00
11:07 AM,35.6,33.8,93,29.92,6.0,NNW,8.1,-,N/A,,Overcast,330,2013-03-12 15:07:00
11:51 AM,34.0,32.0,92,29.96,6.0,WNW,9.2,-,0.00,Rain,Light Rain,300,2013-03-12 15:51:00
12:04 PM,35.6,33.8,93,29.92,9.0,WNW,6.9,-,0.00,,Overcast,300,2013-03-12 16:04:00
12:36 PM,35.6,32.0,87,29.92,10.0,NW,5.8,-,0.00,,Overcast,310,2013-03-12 16:36:00
12:51 PM,36.0,30.9,82,29.95,10.0,WNW,8.1,-,0.00,,Overcast,300,2013-03-12 16:51:00
1:38 PM,37.4,30.2,75,29.94,10.0,WNW,11.5,18.4,N/A,,Overcast,290,2013-03-12 17:38:00
1:51 PM,36.0,30.0,79,29.97,10.0,WNW,12.7,18.4,N/A,,Overcast,300,2013-03-12 17:51:00
2:51 PM,39.0,30.0,70,29.94,10.0,Variable,5.8,16.1,N/A,,Overcast,0,2013-03-12 18:51:00
3:51 PM,39.9,28.9,65,29.95,10.0,WNW,6.9,-,N/A,,Scattered Clouds,290,2013-03-12 19:51:00
4:02 PM,41.0,30.2,65,29.91,10.0,West,8.1,-,N/A,,Mostly Cloudy,260,2013-03-12 20:02:00
4:51 PM,39.9,28.9,65,29.97,10.0,WNW,10.4,-,N/A,,Mostly Cloudy,290,2013-03-12 20:51:00
5:51 PM,39.0,28.0,65,29.98,10.0,WNW,11.5,-,N/A,,Mostly Cloudy,300,2013-03-12 21:51:00
6:32 PM,37.4,26.6,65,29.94,10.0,NW,11.5,-,N/A,,Scattered Clouds,310,2013-03-12 22:32:00
6:51 PM,37.0,27.0,67,30.01,10.0,NW,9.2,-,N/A,,Scattered Clouds,310,2013-03-12 22:51:00
7:51 PM,35.1,26.1,70,30.04,10.0,NW,6.9,-,N/A,,Partly Cloudy,310,2013-03-12 23:51:00
8:51 PM,34.0,27.0,75,30.04,10.0,NNW,3.5,-,N/A,,Scattered Clouds,340,2013-03-13 00:51:00
9:51 PM,32.0,26.1,79,30.06,10.0,Calm,Calm,-,N/A,,Partly Cloudy,0,2013-03-13 01:51:00
10:51 PM,30.0,26.1,85,30.07,10.0,Calm,Calm,-,N/A,,Clear,0,2013-03-13 02:51:00
11:18 PM,28.4,26.6,93,29.99,10.0,Calm,Calm,-,N/A,,Mostly Cloudy,0,2013-03-13 03:18:00
11:51 PM,32.0,27.0,82,30.06,10.0,Calm,Calm,-,N/A,,Overcast,0,2013-03-13 03:51:00